<?xml version="1.0" encoding="UTF-8" standalone="no" ?>
<gpx xmlns="http://www.topografix.com/GPX/1/1" xmlns:xsi="http://www.w3.org/2001/XMLSchema-instance" xsi:schemaLocation="http://www.topografix.com/GPX/1/1 http://www.topografix.com/GPX/1/1/gpx.xsd" version="1.1" creator="VisuGPX - https://www.visugpx.com">
  <metadata>
    <name>Rando LN</name>
  </metadata>
  <trk>
    <name><![CDATA[Refuge de Rajas]]></name>
    <extensions>
      <line xmlns="http://www.topografix.com/GPX/gpx_style/0/2">
        <color>ff0040</color>
        <width>4</width>
      </line>
    </extensions>
    <trkseg>
      <trkpt lat="44.59038" lon="2.92135">
        <ele>814.6</ele>
      </trkpt>
      <trkpt lat="44.59038" lon="2.92135">
        <ele>814.6</ele>
      </trkpt>
      <trkpt lat="44.59038" lon="2.92135">
        <ele>814.6</ele>
      </trkpt>
      <trkpt lat="44.59038" lon="2.92135">
        <ele>814.6</ele>
      </trkpt>
      <trkpt lat="44.59035" lon="2.92108">
        <ele>815.7</ele>
      </trkpt>
      <trkpt lat="44.59016" lon="2.92112">
        <ele>811.2</ele>
      </trkpt>
      <trkpt lat="44.58995" lon="2.92136">
        <ele>805.8</ele>
      </trkpt>
      <trkpt lat="44.58981" lon="2.92139">
        <ele>803.7</ele>
      </trkpt>
      <trkpt lat="44.5897" lon="2.92129">
        <ele>802.5</ele>
      </trkpt>
      <trkpt lat="44.58959" lon="2.92147">
        <ele>800.5</ele>
      </trkpt>
      <trkpt lat="44.58948" lon="2.92153">
        <ele>799</ele>
      </trkpt>
      <trkpt lat="44.58905" lon="2.9214">
        <ele>796.4</ele>
      </trkpt>
      <trkpt lat="44.58883" lon="2.92164">
        <ele>800.5</ele>
      </trkpt>
      <trkpt lat="44.58891" lon="2.92205">
        <ele>803.7</ele>
      </trkpt>
      <trkpt lat="44.58891" lon="2.92217">
        <ele>805.2</ele>
      </trkpt>
      <trkpt lat="44.58883" lon="2.92214">
        <ele>806.8</ele>
      </trkpt>
      <trkpt lat="44.58859" lon="2.92194">
        <ele>809.3</ele>
      </trkpt>
      <trkpt lat="44.58872" lon="2.92226">
        <ele>806.178</ele>
        <time>2015-08-05T18:15:17Z</time>
      </trkpt>
      <trkpt lat="44.58876" lon="2.92272">
        <ele>815.326</ele>
        <time>2015-08-05T18:15:37Z</time>
      </trkpt>
      <trkpt lat="44.58908" lon="2.92383">
        <ele>829.059</ele>
        <time>2015-08-05T18:15:57Z</time>
      </trkpt>
      <trkpt lat="44.58911" lon="2.92416">
        <ele>837.303</ele>
        <time>2015-08-05T18:16:17Z</time>
      </trkpt>
      <trkpt lat="44.58927" lon="2.92452">
        <ele>836.923</ele>
        <time>2015-08-05T18:16:37Z</time>
      </trkpt>
      <trkpt lat="44.58946" lon="2.92579">
        <ele>847.408</ele>
        <time>2015-08-05T18:16:57Z</time>
      </trkpt>
      <trkpt lat="44.58959" lon="2.9262">
        <ele>846.911</ele>
        <time>2015-08-05T18:17:17Z</time>
      </trkpt>
      <trkpt lat="44.58965" lon="2.92672">
        <ele>849.826</ele>
        <time>2015-08-05T18:17:37Z</time>
      </trkpt>
      <trkpt lat="44.58963" lon="2.92852">
        <ele>867.846</ele>
        <time>2015-08-05T18:17:57Z</time>
      </trkpt>
      <trkpt lat="44.5899" lon="2.92912">
        <ele>863.713</ele>
        <time>2015-08-05T18:18:17Z</time>
      </trkpt>
      <trkpt lat="44.58992" lon="2.92945">
        <ele>867.013</ele>
        <time>2015-08-05T18:18:37Z</time>
      </trkpt>
      <trkpt lat="44.58977" lon="2.93038">
        <ele>869.967</ele>
        <time>2015-08-05T18:18:57Z</time>
      </trkpt>
      <trkpt lat="44.5898" lon="2.93095">
        <ele>869.384</ele>
        <time>2015-08-05T18:19:17Z</time>
      </trkpt>
      <trkpt lat="44.58979" lon="2.93212">
        <ele>877.862</ele>
        <time>2015-08-05T18:19:37Z</time>
      </trkpt>
      <trkpt lat="44.59005" lon="2.93324">
        <ele>891.724</ele>
        <time>2015-08-05T18:19:57Z</time>
      </trkpt>
      <trkpt lat="44.59022" lon="2.9351">
        <ele>897.204</ele>
        <time>2015-08-05T18:20:17Z</time>
      </trkpt>
      <trkpt lat="44.5904" lon="2.9358">
        <ele>904.014</ele>
        <time>2015-08-05T18:20:37Z</time>
      </trkpt>
      <trkpt lat="44.59055" lon="2.93611">
        <ele>907.008</ele>
        <time>2015-08-05T18:20:57Z</time>
      </trkpt>
      <trkpt lat="44.59058" lon="2.93665">
        <ele>912.238</ele>
        <time>2015-08-05T18:21:17Z</time>
      </trkpt>
      <trkpt lat="44.59038" lon="2.93805">
        <ele>934.123</ele>
        <time>2015-08-05T18:21:37Z</time>
      </trkpt>
      <trkpt lat="44.59037" lon="2.9384">
        <ele>938.683</ele>
        <time>2015-08-05T18:21:57Z</time>
      </trkpt>
      <trkpt lat="44.59031" lon="2.93869">
        <ele>945.34</ele>
        <time>2015-08-05T18:22:17Z</time>
      </trkpt>
      <trkpt lat="44.59025" lon="2.94016">
        <ele>964.21</ele>
        <time>2015-08-05T18:22:37Z</time>
      </trkpt>
      <trkpt lat="44.58975" lon="2.94123">
        <ele>981.854</ele>
        <time>2015-08-05T18:22:57Z</time>
      </trkpt>
      <trkpt lat="44.58935" lon="2.94241">
        <ele>997.351</ele>
        <time>2015-08-05T18:23:17Z</time>
      </trkpt>
      <trkpt lat="44.58913" lon="2.9432">
        <ele>1008.999</ele>
        <time>2015-08-05T18:23:37Z</time>
      </trkpt>
      <trkpt lat="44.58912" lon="2.9442">
        <ele>1011.935</ele>
        <time>2015-08-05T18:23:57Z</time>
      </trkpt>
      <trkpt lat="44.58921" lon="2.94446">
        <ele>1011.286</ele>
        <time>2015-08-05T18:24:17Z</time>
      </trkpt>
      <trkpt lat="44.58937" lon="2.94538">
        <ele>1018.414</ele>
        <time>2015-08-05T18:24:37Z</time>
      </trkpt>
      <trkpt lat="44.58967" lon="2.94616">
        <ele>1016.408</ele>
        <time>2015-08-05T18:24:57Z</time>
      </trkpt>
      <trkpt lat="44.58993" lon="2.94643">
        <ele>1016.319</ele>
        <time>2015-08-05T18:25:17Z</time>
      </trkpt>
      <trkpt lat="44.59016" lon="2.94684">
        <ele>1022.164</ele>
        <time>2015-08-05T18:25:37Z</time>
      </trkpt>
      <trkpt lat="44.59001" lon="2.94727">
        <ele>1031.524</ele>
        <time>2015-08-05T18:25:57Z</time>
      </trkpt>
      <trkpt lat="44.58963" lon="2.94748">
        <ele>1046.861</ele>
        <time>2015-08-05T18:26:17Z</time>
      </trkpt>
      <trkpt lat="44.58933" lon="2.9473">
        <ele>1050.711</ele>
        <time>2015-08-05T18:26:37Z</time>
      </trkpt>
      <trkpt lat="44.58863" lon="2.94717">
        <ele>1069.525</ele>
        <time>2015-08-05T18:26:57Z</time>
      </trkpt>
      <trkpt lat="44.58843" lon="2.94725">
        <ele>1072.122</ele>
        <time>2015-08-05T18:27:17Z</time>
      </trkpt>
      <trkpt lat="44.58834" lon="2.94803">
        <ele>1078.71</ele>
        <time>2015-08-05T18:27:37Z</time>
      </trkpt>
      <trkpt lat="44.5881" lon="2.94846">
        <ele>1078.423</ele>
        <time>2015-08-05T18:27:57Z</time>
      </trkpt>
      <trkpt lat="44.58781" lon="2.94874">
        <ele>1079.483</ele>
        <time>2015-08-05T18:28:17Z</time>
      </trkpt>
      <trkpt lat="44.58744" lon="2.9486">
        <ele>1082.311</ele>
        <time>2015-08-05T18:28:37Z</time>
      </trkpt>
      <trkpt lat="44.58705" lon="2.94868">
        <ele>1085.108</ele>
        <time>2015-08-05T18:28:57Z</time>
      </trkpt>
      <trkpt lat="44.58671" lon="2.949">
        <ele>1090.188</ele>
        <time>2015-08-05T18:29:17Z</time>
      </trkpt>
      <trkpt lat="44.58665" lon="2.94938">
        <ele>1092.653</ele>
        <time>2015-08-05T18:29:37Z</time>
      </trkpt>
      <trkpt lat="44.58625" lon="2.94951">
        <ele>1093.963</ele>
        <time>2015-08-05T18:29:57Z</time>
      </trkpt>
      <trkpt lat="44.58564" lon="2.94993">
        <ele>1099.32</ele>
        <time>2015-08-05T18:30:17Z</time>
      </trkpt>
      <trkpt lat="44.5854" lon="2.95045">
        <ele>1104.92</ele>
        <time>2015-08-05T18:30:37Z</time>
      </trkpt>
      <trkpt lat="44.58496" lon="2.9508">
        <ele>1106.394</ele>
        <time>2015-08-05T18:30:57Z</time>
      </trkpt>
      <trkpt lat="44.58518" lon="2.95114">
        <ele>1110.351</ele>
        <time>2015-08-05T18:31:17Z</time>
      </trkpt>
      <trkpt lat="44.58518" lon="2.95128">
        <ele>1111.629</ele>
        <time>2015-08-05T18:31:37Z</time>
      </trkpt>
      <trkpt lat="44.58535" lon="2.95149">
        <ele>1113.545</ele>
        <time>2015-08-05T18:31:57Z</time>
      </trkpt>
      <trkpt lat="44.58523" lon="2.9519">
        <ele>1116.447</ele>
        <time>2015-08-05T18:32:17Z</time>
      </trkpt>
      <trkpt lat="44.58502" lon="2.95214">
        <ele>1118.111</ele>
        <time>2015-08-05T18:32:37Z</time>
      </trkpt>
      <trkpt lat="44.58459" lon="2.95285">
        <ele>1123.808</ele>
        <time>2015-08-05T18:32:57Z</time>
      </trkpt>
      <trkpt lat="44.58509" lon="2.95376">
        <ele>1142.08</ele>
        <time>2015-08-05T18:33:17Z</time>
      </trkpt>
      <trkpt lat="44.58508" lon="2.95402">
        <ele>1146.175</ele>
        <time>2015-08-05T18:33:37Z</time>
      </trkpt>
      <trkpt lat="44.58492" lon="2.95421">
        <ele>1148.365</ele>
        <time>2015-08-05T18:33:57Z</time>
      </trkpt>
      <trkpt lat="44.58469" lon="2.95472">
        <ele>1156.632</ele>
        <time>2015-08-05T18:34:17Z</time>
      </trkpt>
      <trkpt lat="44.58539" lon="2.9548">
        <ele>1161.562</ele>
        <time>2015-08-05T18:34:37Z</time>
      </trkpt>
      <trkpt lat="44.58659" lon="2.95527">
        <ele>1171.176</ele>
        <time>2015-08-05T18:34:57Z</time>
      </trkpt>
      <trkpt lat="44.58673" lon="2.95554">
        <ele>1176.023</ele>
        <time>2015-08-05T18:35:17Z</time>
      </trkpt>
      <trkpt lat="44.58661" lon="2.95573">
        <ele>1177.581</ele>
        <time>2015-08-05T18:35:37Z</time>
      </trkpt>
      <trkpt lat="44.58603" lon="2.95583">
        <ele>1179.014</ele>
        <time>2015-08-05T18:35:57Z</time>
      </trkpt>
      <trkpt lat="44.58561" lon="2.95621">
        <ele>1178.554</ele>
        <time>2015-08-05T18:36:17Z</time>
      </trkpt>
      <trkpt lat="44.58527" lon="2.95684">
        <ele>1185.509</ele>
        <time>2015-08-05T18:36:37Z</time>
      </trkpt>
      <trkpt lat="44.58479" lon="2.95863">
        <ele>1196.408</ele>
        <time>2015-08-05T18:36:57Z</time>
      </trkpt>
      <trkpt lat="44.5845" lon="2.95916">
        <ele>1198.287</ele>
        <time>2015-08-05T18:37:17Z</time>
      </trkpt>
      <trkpt lat="44.5829" lon="2.96799">
        <ele>1252.342</ele>
        <time>2015-08-05T18:37:37Z</time>
      </trkpt>
      <trkpt lat="44.58352" lon="2.97436">
        <ele>1271.952</ele>
        <time>2015-08-05T18:37:57Z</time>
      </trkpt>
      <trkpt lat="44.58636" lon="2.9782">
        <ele>1281.889</ele>
        <time>2015-08-05T18:38:17Z</time>
      </trkpt>
      <trkpt lat="44.58656" lon="2.97837">
        <ele>1283.119</ele>
        <time>2015-08-05T18:38:37Z</time>
      </trkpt>
      <trkpt lat="44.58733" lon="2.97961">
        <ele>1290.423</ele>
        <time>2015-08-05T18:38:57Z</time>
      </trkpt>
      <trkpt lat="44.5876" lon="2.97977">
        <ele>1291.88</ele>
        <time>2015-08-05T18:39:17Z</time>
      </trkpt>
      <trkpt lat="44.58888" lon="2.97976">
        <ele>1294.868</ele>
        <time>2015-08-05T18:39:37Z</time>
      </trkpt>
      <trkpt lat="44.5892" lon="2.97968">
        <ele>1295.749</ele>
        <time>2015-08-05T18:39:57Z</time>
      </trkpt>
      <trkpt lat="44.58962" lon="2.97968">
        <ele>1295.102</ele>
        <time>2015-08-05T18:40:17Z</time>
      </trkpt>
      <trkpt lat="44.59106" lon="2.97948">
        <ele>1300.722</ele>
        <time>2015-08-05T18:40:37Z</time>
      </trkpt>
      <trkpt lat="44.59195" lon="2.97948">
        <ele>1300.908</ele>
        <time>2015-08-05T18:40:57Z</time>
      </trkpt>
      <trkpt lat="44.59311" lon="2.97959">
        <ele>1305.62</ele>
        <time>2015-08-05T18:41:17Z</time>
      </trkpt>
      <trkpt lat="44.59388" lon="2.97984">
        <ele>1304.275</ele>
        <time>2015-08-05T18:41:37Z</time>
      </trkpt>
      <trkpt lat="44.59439" lon="2.98019">
        <ele>1303.575</ele>
        <time>2015-08-05T18:41:57Z</time>
      </trkpt>
      <trkpt lat="44.59532" lon="2.98076">
        <ele>1303.112</ele>
        <time>2015-08-05T18:42:17Z</time>
      </trkpt>
      <trkpt lat="44.59665" lon="2.98171">
        <ele>1300.912</ele>
        <time>2015-08-05T18:42:37Z</time>
      </trkpt>
      <trkpt lat="44.5973" lon="2.98239">
        <ele>1304.976</ele>
        <time>2015-08-05T18:42:57Z</time>
      </trkpt>
      <trkpt lat="44.59866" lon="2.98421">
        <ele>1307.723</ele>
        <time>2015-08-05T18:43:17Z</time>
      </trkpt>
      <trkpt lat="44.59891" lon="2.98476">
        <ele>1306.131</ele>
        <time>2015-08-05T18:43:37Z</time>
      </trkpt>
      <trkpt lat="44.59914" lon="2.98619">
        <ele>1309.716</ele>
        <time>2015-08-05T18:43:57Z</time>
      </trkpt>
      <trkpt lat="44.59948" lon="2.98769">
        <ele>1312.376</ele>
        <time>2015-08-05T18:44:17Z</time>
      </trkpt>
      <trkpt lat="44.59954" lon="2.98915">
        <ele>1310.713</ele>
        <time>2015-08-05T18:44:37Z</time>
      </trkpt>
      <trkpt lat="44.59965" lon="2.99031">
        <ele>1313.008</ele>
        <time>2015-08-05T18:44:57Z</time>
      </trkpt>
      <trkpt lat="44.59969" lon="2.99106">
        <ele>1313.197</ele>
        <time>2015-08-05T18:45:17Z</time>
      </trkpt>
      <trkpt lat="44.59712" lon="2.99482">
        <ele>1315.792</ele>
        <time>2015-08-05T18:45:37Z</time>
      </trkpt>
      <trkpt lat="44.59676" lon="2.99575">
        <ele>1315.992</ele>
        <time>2015-08-05T18:45:57Z</time>
      </trkpt>
      <trkpt lat="44.59664" lon="2.99668">
        <ele>1312.429</ele>
        <time>2015-08-05T18:46:17Z</time>
      </trkpt>
      <trkpt lat="44.59636" lon="2.99757">
        <ele>1315.229</ele>
        <time>2015-08-05T18:46:37Z</time>
      </trkpt>
      <trkpt lat="44.59531" lon="2.99964">
        <ele>1318.723</ele>
        <time>2015-08-05T18:46:57Z</time>
      </trkpt>
      <trkpt lat="44.59499" lon="3.00066">
        <ele>1319.37</ele>
        <time>2015-08-05T18:47:17Z</time>
      </trkpt>
      <trkpt lat="44.59485" lon="3.00153">
        <ele>1318.098</ele>
        <time>2015-08-05T18:47:37Z</time>
      </trkpt>
      <trkpt lat="44.59487" lon="3.00187">
        <ele>1318.558</ele>
        <time>2015-08-05T18:47:57Z</time>
      </trkpt>
      <trkpt lat="44.59462" lon="3.00416">
        <ele>1322.752</ele>
        <time>2015-08-05T18:48:17Z</time>
      </trkpt>
      <trkpt lat="44.59457" lon="3.00522">
        <ele>1316.117</ele>
        <time>2015-08-05T18:48:37Z</time>
      </trkpt>
      <trkpt lat="44.59429" lon="3.0057">
        <ele>1313.608</ele>
        <time>2015-08-05T18:48:57Z</time>
      </trkpt>
      <trkpt lat="44.5936" lon="3.00751">
        <ele>1316.091</ele>
        <time>2015-08-05T18:49:17Z</time>
      </trkpt>
      <trkpt lat="44.5929" lon="3.00855">
        <ele>1310.356</ele>
        <time>2015-08-05T18:49:37Z</time>
      </trkpt>
      <trkpt lat="44.59167" lon="3.01021">
        <ele>1300.096</ele>
        <time>2015-08-05T18:49:57Z</time>
      </trkpt>
      <trkpt lat="44.59149" lon="3.01072">
        <ele>1302.283</ele>
        <time>2015-08-05T18:50:17Z</time>
      </trkpt>
      <trkpt lat="44.59146" lon="3.01109">
        <ele>1303.923</ele>
        <time>2015-08-05T18:50:37Z</time>
      </trkpt>
      <trkpt lat="44.59136" lon="3.01126">
        <ele>1305.687</ele>
        <time>2015-08-05T18:50:57Z</time>
      </trkpt>
      <trkpt lat="44.59135" lon="3.01148">
        <ele>1306.124</ele>
        <time>2015-08-05T18:51:17Z</time>
      </trkpt>
      <trkpt lat="44.59159" lon="3.01198">
        <ele>1305.752</ele>
        <time>2015-08-05T18:51:37Z</time>
      </trkpt>
      <trkpt lat="44.59173" lon="3.01243">
        <ele>1308.058</ele>
        <time>2015-08-05T18:51:57Z</time>
      </trkpt>
      <trkpt lat="44.59212" lon="3.01274">
        <ele>1309.252</ele>
        <time>2015-08-05T18:52:17Z</time>
      </trkpt>
      <trkpt lat="44.59261" lon="3.01376">
        <ele>1315.117</ele>
        <time>2015-08-05T18:52:37Z</time>
      </trkpt>
      <trkpt lat="44.59279" lon="3.01427">
        <ele>1316.208</ele>
        <time>2015-08-05T18:52:57Z</time>
      </trkpt>
      <trkpt lat="44.59283" lon="3.01458">
        <ele>1317.351</ele>
        <time>2015-08-05T18:53:17Z</time>
      </trkpt>
      <trkpt lat="44.59283" lon="3.01547">
        <ele>1321.346</ele>
        <time>2015-08-05T18:53:37Z</time>
      </trkpt>
      <trkpt lat="44.59262" lon="3.01669">
        <ele>1321.666</ele>
        <time>2015-08-05T18:53:57Z</time>
      </trkpt>
      <trkpt lat="44.59242" lon="3.0171">
        <ele>1322.773</ele>
        <time>2015-08-05T18:54:17Z</time>
      </trkpt>
      <trkpt lat="44.59223" lon="3.01739">
        <ele>1322.473</ele>
        <time>2015-08-05T18:54:37Z</time>
      </trkpt>
      <trkpt lat="44.59201" lon="3.01754">
        <ele>1324.267</ele>
        <time>2015-08-05T18:54:57Z</time>
      </trkpt>
      <trkpt lat="44.59188" lon="3.01784">
        <ele>1324.424</ele>
        <time>2015-08-05T18:55:17Z</time>
      </trkpt>
      <trkpt lat="44.59154" lon="3.01825">
        <ele>1325.692</ele>
        <time>2015-08-05T18:55:37Z</time>
      </trkpt>
      <trkpt lat="44.59141" lon="3.01856">
        <ele>1327.632</ele>
        <time>2015-08-05T18:55:57Z</time>
      </trkpt>
      <trkpt lat="44.59133" lon="3.019">
        <ele>1330.092</ele>
        <time>2015-08-05T18:56:17Z</time>
      </trkpt>
      <trkpt lat="44.59137" lon="3.01934">
        <ele>1330.811</ele>
        <time>2015-08-05T18:56:37Z</time>
      </trkpt>
      <trkpt lat="44.5917" lon="3.01981">
        <ele>1331.908</ele>
        <time>2015-08-05T18:56:57Z</time>
      </trkpt>
      <trkpt lat="44.59177" lon="3.02018">
        <ele>1335.639</ele>
        <time>2015-08-05T18:57:17Z</time>
      </trkpt>
      <trkpt lat="44.59233" lon="3.02064">
        <ele>1335.234</ele>
        <time>2015-08-05T18:57:37Z</time>
      </trkpt>
      <trkpt lat="44.59213" lon="3.02137">
        <ele>1338.734</ele>
        <time>2015-08-05T18:57:57Z</time>
      </trkpt>
      <trkpt lat="44.59282" lon="3.02196">
        <ele>1339.211</ele>
        <time>2015-08-05T18:58:17Z</time>
      </trkpt>
      <trkpt lat="44.59364" lon="3.02272">
        <ele>1339.061</ele>
        <time>2015-08-05T18:58:37Z</time>
      </trkpt>
      <trkpt lat="44.59414" lon="3.02309">
        <ele>1340.055</ele>
        <time>2015-08-05T18:58:57Z</time>
      </trkpt>
      <trkpt lat="44.59511" lon="3.02353">
        <ele>1343.462</ele>
        <time>2015-08-05T18:59:17Z</time>
      </trkpt>
      <trkpt lat="44.59582" lon="3.02393">
        <ele>1341.58</ele>
        <time>2015-08-05T18:59:37Z</time>
      </trkpt>
      <trkpt lat="44.59697" lon="3.02446">
        <ele>1340.912</ele>
        <time>2015-08-05T18:59:57Z</time>
      </trkpt>
      <trkpt lat="44.59776" lon="3.02628">
        <ele>1336.432</ele>
        <time>2015-08-05T19:00:17Z</time>
      </trkpt>
      <trkpt lat="44.59856" lon="3.02838">
        <ele>1330.605</ele>
        <time>2015-08-05T19:00:37Z</time>
      </trkpt>
      <trkpt lat="44.59856" lon="3.02889">
        <ele>1328.208</ele>
        <time>2015-08-05T19:00:57Z</time>
      </trkpt>
      <trkpt lat="44.59825" lon="3.02956">
        <ele>1334.177</ele>
        <time>2015-08-05T19:01:17Z</time>
      </trkpt>
      <trkpt lat="44.59814" lon="3.03069">
        <ele>1337.242</ele>
        <time>2015-08-05T19:01:37Z</time>
      </trkpt>
      <trkpt lat="44.5977" lon="3.03189">
        <ele>1342.862</ele>
        <time>2015-08-05T19:01:57Z</time>
      </trkpt>
      <trkpt lat="44.59675" lon="3.03362">
        <ele>1348.079</ele>
        <time>2015-08-05T19:02:17Z</time>
      </trkpt>
      <trkpt lat="44.59482" lon="3.03957">
        <ele>1329.359</ele>
        <time>2015-08-05T19:02:37Z</time>
      </trkpt>
      <trkpt lat="44.59356" lon="3.04308">
        <ele>1323.453</ele>
        <time>2015-08-05T19:02:57Z</time>
      </trkpt>
      <trkpt lat="44.59289" lon="3.04461">
        <ele>1316.89</ele>
        <time>2015-08-05T19:03:17Z</time>
      </trkpt>
      <trkpt lat="44.59079" lon="3.05007">
        <ele>1342.598</ele>
        <time>2015-08-05T19:03:37Z</time>
      </trkpt>
      <trkpt lat="44.5869" lon="3.05581">
        <ele>1364.314</ele>
        <time>2015-08-05T19:03:57Z</time>
      </trkpt>
      <trkpt lat="44.58492" lon="3.05739">
        <ele>1370.354</ele>
        <time>2015-08-05T19:04:17Z</time>
      </trkpt>
      <trkpt lat="44.58403" lon="3.05791">
        <ele>1370.009</ele>
        <time>2015-08-05T19:04:37Z</time>
      </trkpt>
      <trkpt lat="44.57982" lon="3.06097">
        <ele>1365.208</ele>
        <time>2015-08-05T19:04:57Z</time>
      </trkpt>
      <trkpt lat="44.57953" lon="3.06128">
        <ele>1366.427</ele>
        <time>2015-08-05T19:05:17Z</time>
      </trkpt>
      <trkpt lat="44.57897" lon="3.06237">
        <ele>1370.362</ele>
        <time>2015-08-05T19:05:37Z</time>
      </trkpt>
      <trkpt lat="44.5783" lon="3.06382">
        <ele>1372.262</ele>
        <time>2015-08-05T19:05:57Z</time>
      </trkpt>
      <trkpt lat="44.57656" lon="3.06579">
        <ele>1384.849</ele>
        <time>2015-08-05T19:06:17Z</time>
      </trkpt>
      <trkpt lat="44.57656" lon="3.06583">
        <ele>1385.267</ele>
        <time>2019-07-07T15:20:50Z</time>
      </trkpt>
      <trkpt lat="44.57656" lon="3.06583">
        <ele>1385.267</ele>
        <time>2019-07-07T15:20:50Z</time>
      </trkpt>
      <trkpt lat="44.57656" lon="3.06583">
        <ele>1385.281</ele>
        <time>2019-07-07T15:21:10Z</time>
      </trkpt>
      <trkpt lat="44.57682" lon="3.06733">
        <ele>1389.019</ele>
        <time>2019-07-07T15:21:30Z</time>
      </trkpt>
      <trkpt lat="44.57665" lon="3.06887">
        <ele>1394.608</ele>
        <time>2019-07-07T15:21:50Z</time>
      </trkpt>
      <trkpt lat="44.57582" lon="3.06993">
        <ele>1405.27</ele>
        <time>2019-07-07T15:22:10Z</time>
      </trkpt>
      <trkpt lat="44.57524" lon="3.07131">
        <ele>1414.144</ele>
        <time>2019-07-07T15:22:30Z</time>
      </trkpt>
      <trkpt lat="44.57474" lon="3.0728">
        <ele>1426.848</ele>
        <time>2019-07-07T15:22:50Z</time>
      </trkpt>
      <trkpt lat="44.57663" lon="3.07369">
        <ele>1401.595</ele>
        <time>2019-07-07T15:23:10Z</time>
      </trkpt>
      <trkpt lat="44.57665" lon="3.07455">
        <ele>1404.129</ele>
        <time>2019-07-07T15:23:30Z</time>
      </trkpt>
      <trkpt lat="44.57689" lon="3.07496">
        <ele>1401.336</ele>
        <time>2019-07-07T15:23:50Z</time>
      </trkpt>
      <trkpt lat="44.57672" lon="3.07625">
        <ele>1406.545</ele>
        <time>2019-07-07T15:24:10Z</time>
      </trkpt>
      <trkpt lat="44.57718" lon="3.08092">
        <ele>1406.681</ele>
        <time>2019-07-07T15:24:30Z</time>
      </trkpt>
      <trkpt lat="44.57705" lon="3.08158">
        <ele>1405.076</ele>
        <time>2019-07-07T15:24:50Z</time>
      </trkpt>
      <trkpt lat="44.57747" lon="3.08201">
        <ele>1398.39</ele>
        <time>2019-07-07T15:25:10Z</time>
      </trkpt>
      <trkpt lat="44.57813" lon="3.08414">
        <ele>1393.019</ele>
        <time>2019-07-07T15:25:30Z</time>
      </trkpt>
      <trkpt lat="44.57887" lon="3.08688">
        <ele>1387.508</ele>
        <time>2019-07-07T15:25:50Z</time>
      </trkpt>
      <trkpt lat="44.57802" lon="3.08975">
        <ele>1371.181</ele>
        <time>2019-07-07T15:26:10Z</time>
      </trkpt>
      <trkpt lat="44.57692" lon="3.09077">
        <ele>1355.975</ele>
        <time>2019-07-07T15:26:30Z</time>
      </trkpt>
      <trkpt lat="44.57662" lon="3.09084">
        <ele>1351.869</ele>
        <time>2019-07-07T15:26:50Z</time>
      </trkpt>
      <trkpt lat="44.5761" lon="3.09261">
        <ele>1336.536</ele>
        <time>2019-07-07T15:27:10Z</time>
      </trkpt>
      <trkpt lat="44.5761" lon="3.09336">
        <ele>1332.72</ele>
        <time>2019-07-07T15:27:30Z</time>
      </trkpt>
    </trkseg>
  </trk>
</gpx>